Time;durP1;ratioP1;P1;durP2;ratioP2;P2;SDS_P1;SDS_P2;PMS_P1;PMS_P2;Temp;Humidity;BMP_temperature;BMP_pressure;BME280_temperature;BME280_humidity;BME280_pressure;Samples;Min_cycle;Max_cycle;Signal;HPM_P1;HPM_P2
2022/04/10 01:14:41;;;;;;;;;;;;;;;16.15;52.08;101878.56;6292786;22;19926;-80
2022/04/10 01:17:08;;;;;;;;;;;;;;;16.16;51.69;101881.19;6295243;22;19915;-79
2022/04/10 01:19:35;;;;;;;;;;;;;;;16.14;52.27;101885.50;6269610;22;19914;-79
2022/04/10 01:22:10;;;;;;;;;;;;;;;16.14;52.06;101877.72;6304573;22;19914;-80
2022/04/10 01:24:36;;;;;;;;;;;;;;;16.16;51.75;101888.13;6334622;22;19907;-80
2022/04/10 01:27:02;;;;;;;;;;;;;;;16.17;51.75;101887.25;6330659;22;19907;-80
2022/04/10 01:29:28;;;;;;;;;;;;;;;16.17;51.77;101893.31;6326004;22;19914;-80
2022/04/10 01:31:54;;;;;;;;;;;;;;;16.19;51.73;101899.41;6324349;22;20239;-79
2022/04/10 01:34:20;;;;;;;;;;;;;;;16.19;51.45;101893.34;6296629;22;19928;-80
2022/04/10 01:36:51;;;;;;;;;;;;;;;16.19;51.57;101894.22;6296633;22;19914;-80
2022/04/10 06:31:40;;;;;;;;;;;;;;;16.76;49.37;102088.97;6241465;22;20719;-80
2022/04/10 12:02:43;;;;;;;;;;;;;;;17.06;48.86;102209.03;6309962;22;19923;-82
2022/04/10 12:18:25;;;;;;;;;;;;;;;17.14;50.49;102192.69;6303698;22;19919;-85
2022/04/10 12:21:18;;;;;;;;;;;;;;;17.16;50.25;102193.56;6333894;22;19914;-85
2022/04/10 12:23:48;;;;;;;;;;;;;;;17.16;50.63;102190.97;6179643;23;19932;-85
2022/04/10 12:29:33;;;;;;;;;;;;;;;17.16;50.75;102189.25;6182131;23;19931;-85
2022/04/10 12:35:21;;;;;;;;;;;;;;;17.16;50.54;102203.97;6179979;23;19943;-84
2022/04/10 12:38:06;;;;;;;;;;;;;;;17.17;51.01;102208.34;6157782;23;19896;-85
2022/04/10 12:41:04;;;;;;;;;;;;;;;17.16;50.47;102210.06;6145905;23;19975;-85
2022/04/10 12:43:31;;;;;;;;;;;;;;;17.18;50.84;102208.38;6128539;23;19957;-85
2022/04/10 12:46:31;;;;;;;;;;;;;;;17.18;51.06;102204.84;6105635;23;19893;-85
2022/04/10 12:49:17;;;;;;;;;;;;;;;17.18;50.87;102210.06;6059407;23;19909;-85
2022/04/10 12:51:59;;;;;;;;;;;;;;;17.20;50.75;102213.56;6182683;23;19916;-85
2022/04/10 12:54:43;;;;;;;;;;;;;;;17.19;50.85;102206.63;6157531;23;19912;-85
2022/04/10 12:57:18;;;;;;;;;;;;;;;17.21;51.16;102199.72;6178131;23;19909;-85
2022/04/10 13:03:01;;;;;;;;;;;;;;;17.21;50.98;102197.13;6323789;22;19955;-84
2022/04/10 13:08:50;;;;;;;;;;;;;;;17.22;50.82;102184.16;6336133;22;19921;-83
2022/04/10 13:11:56;;;;;;;;;;;;;;;17.24;50.95;102191.94;6272852;23;20347;-84
2022/04/10 13:14:26;;;;;;;;;;;;;;;17.26;51.20;102187.63;6272162;23;19947;-84
2022/04/10 13:20:26;;;;;;;;;;;;;;;17.27;50.98;102192.00;6182155;23;19920;-84
2022/04/10 13:22:58;;;;;;;;;;;;;;;17.27;50.92;102186.81;6179735;23;19909;-84
2022/04/10 13:25:36;;;;;;;;;;;;;;;17.27;50.83;102187.66;6179840;23;19912;-85
2022/04/10 13:28:21;;;;;;;;;;;;;;;17.28;51.02;102186.81;6134035;23;19897;-85
2022/04/10 13:30:52;;;;;;;;;;;;;;;17.31;51.16;102182.50;6180589;23;19919;-84
2022/04/10 13:36:13;;;;;;;;;;;;;;;17.32;50.98;102179.91;6181090;23;19935;-84
2022/04/10 13:42:02;;;;;;;;;;;;;;;17.33;50.75;102180.78;6181938;23;19915;-84
2022/04/10 13:44:47;;;;;;;;;;;;;;;17.35;50.83;102179.06;6179466;23;19900;-84
2022/04/10 13:47:40;;;;;;;;;;;;;;;17.35;50.88;102179.94;6214855;23;19915;-84
2022/04/10 13:50:18;;;;;;;;;;;;;;;17.34;51.10;102175.59;6173799;23;19900;-84
2022/04/10 13:55:53;;;;;;;;;;;;;;;17.35;51.04;102174.75;6329335;22;19947;-84
2022/04/10 13:58:46;;;;;;;;;;;;;;;17.37;50.61;102178.25;6243010;23;19908;-84
2022/04/10 14:36:04;;;;;;;;;;;;;;;17.44;50.57;102155.75;6298034;22;19902;-84
2022/04/10 14:38:39;;;;;;;;;;;;;;;17.44;50.32;102161.88;6303268;22;19923;-84
2022/04/10 14:44:46;;;;;;;;;;;;;;;17.47;49.98;102146.28;6272081;22;19899;-84
2022/04/10 14:47:20;;;;;;;;;;;;;;;17.49;50.34;102151.50;6273033;23;19979;-84
2022/04/10 14:50:11;;;;;;;;;;;;;;;17.49;49.98;102154.13;6258906;23;19908;-81
2022/04/10 14:55:59;;;;;;;;;;;;;;;17.50;50.30;102144.56;6273436;22;19922;-84
2022/04/10 14:58:26;;;;;;;;;;;;;;;17.51;49.91;102146.31;6260962;23;19915;-84
2022/04/10 15:01:21;;;;;;;;;;;;;;;17.51;49.94;102148.91;6268283;23;19947;-84
2022/04/10 15:03:49;;;;;;;;;;;;;;;17.49;49.91;102141.09;6245331;23;19914;-84
2022/04/10 15:06:19;;;;;;;;;;;;;;;17.50;50.15;102141.97;6269793;22;19943;-84
2022/04/10 15:08:52;;;;;;;;;;;;;;;17.50;49.83;102144.56;6245625;23;19896;-84
2022/04/10 15:14:31;;;;;;;;;;;;;;;17.51;49.46;102144.59;6304121;22;19930;-84
2022/04/10 15:16:58;;;;;;;;;;;;;;;17.52;49.53;102133.31;6301995;22;19913;-84
2022/04/10 15:22:28;;;;;;;;;;;;;;;17.53;49.77;102134.19;6322105;22;19924;-84
2022/04/10 15:24:59;;;;;;;;;;;;;;;17.54;49.22;102126.41;6335570;22;19894;-84
2022/04/10 15:27:41;;;;;;;;;;;;;;;17.56;49.33;102131.63;6300357;22;19937;-85
2022/04/10 15:30:14;;;;;;;;;;;;;;;17.56;49.43;102129.03;6333155;22;19915;-85
2022/04/10 15:32:59;;;;;;;;;;;;;;;17.56;49.24;102126.44;6305324;22;19915;-86
2022/04/10 15:35:47;;;;;;;;;;;;;;;17.57;49.40;102120.34;6309068;22;19959;-85
2022/04/10 15:38:15;;;;;;;;;;;;;;;17.57;49.75;102122.94;6228004;23;19896;-80
2022/04/10 15:40:41;;;;;;;;;;;;;;;17.60;50.51;102110.00;6234039;23;19908;-82
2022/04/10 15:43:08;;;;;;;;;;;;;;;17.60;49.28;102108.25;6214133;23;20357;-81
2022/04/10 15:45:43;;;;;;;;;;;;;;;17.63;48.48;102112.59;6240297;23;19912;-83
2022/04/10 15:48:28;;;;;;;;;;;;;;;17.62;48.68;102105.69;6176869;23;19908;-81
2022/04/10 15:54:08;;;;;;;;;;;;;;;17.62;49.67;102103.94;6180776;23;19939;-84
2022/04/10 15:57:04;;;;;;;;;;;;;;;17.62;50.08;102090.91;6175836;23;19916;-81
2022/04/10 15:59:32;;;;;;;;;;;;;;;17.63;49.73;102094.38;6150078;23;19968;-81
2022/04/10 16:01:59;;;;;;;;;;;;;;;17.62;49.57;102101.34;6177272;23;19909;-81
2022/04/10 16:04:26;;;;;;;;;;;;;;;17.60;49.95;102105.66;6175363;23;19956;-81
2022/04/10 16:30:13;;;;;;;;;;;;;;;17.60;50.08;102107.38;6306200;22;20011;-81
2022/04/10 16:33:07;;;;;;;;;;;;;;;17.59;49.88;102116.91;6307240;22;19951;-82
2022/04/10 16:35:53;;;;;;;;;;;;;;;17.57;49.94;102107.34;6307070;22;19897;-83
2022/04/10 16:38:20;;;;;;;;;;;;;;;17.56;49.86;102113.41;6304545;22;19919;-83
2022/04/10 16:41:28;;;;;;;;;;;;;;;17.58;49.66;102115.16;6245076;22;19892;-83
2022/04/10 16:50:05;;;;;;;;;;;;;;;17.59;49.98;102105.63;6245103;23;19930;-82
2022/04/10 16:52:50;;;;;;;;;;;;;;;17.59;49.87;102108.22;6218434;23;19896;-82
2022/04/10 16:55:22;;;;;;;;;;;;;;;17.60;49.57;102110.00;6244806;23;19939;-82
2022/04/10 16:58:13;;;;;;;;;;;;;;;17.60;49.87;102117.78;6243264;23;19932;-82
2022/04/10 17:00:58;;;;;;;;;;;;;;;17.57;49.63;102122.94;6212259;23;19892;-82
2022/04/10 17:03:52;;;;;;;;;;;;;;;17.57;49.59;102117.75;6241221;23;19908;-81
2022/04/10 17:06:19;;;;;;;;;;;;;;;17.54;49.67;102118.59;6240521;23;19900;-81
2022/04/10 17:08:44;;;;;;;;;;;;;;;17.53;49.79;102115.97;6213894;23;19908;-81
2022/04/10 17:14:14;;;;;;;;;;;;;;;17.50;49.99;102114.19;6248225;22;19914;-82
2022/04/10 17:16:44;;;;;;;;;;;;;;;17.48;49.78;102114.22;6248481;22;19898;-81
2022/04/10 17:19:19;;;;;;;;;;;;;;;17.47;49.57;102117.66;6265845;23;19923;-81
2022/04/10 17:21:54;;;;;;;;;;;;;;;17.47;49.68;102128.06;6267841;23;19951;-81
2022/04/10 17:27:23;;;;;;;;;;;;;;;17.46;49.47;102123.72;6300902;22;19921;-81
2022/04/10 17:35:47;;;;;;;;;;;;;;;17.47;51.73;102128.06;6261194;22;19923;-80
2022/04/10 17:38:31;;;;;;;;;;;;;;;17.52;51.65;102127.25;6334690;22;19918;-81
2022/04/10 17:41:00;;;;;;;;;;;;;;;17.51;51.72;102122.88;6312303;22;19945;-82
2022/04/10 17:56:11;;;;;;;;;;;;;;;17.13;58.57;102113.75;6204728;23;19915;-81
2022/04/10 17:58:37;;;;;;;;;;;;;;;17.10;58.89;102121.53;6299150;22;19911;-81
2022/04/10 18:01:02;;;;;;;;;;;;;;;17.09;58.67;102121.50;6319094;22;20320;-81
2022/04/10 18:03:28;;;;;;;;;;;;;;;17.08;57.84;102125.84;6323708;22;20265;-81
2022/04/10 18:05:54;;;;;;;;;;;;;;;17.06;58.68;102122.34;6293657;22;19938;-81
2022/04/10 18:08:19;;;;;;;;;;;;;;;17.06;58.67;102127.56;6318645;22;20394;-81
2022/04/10 18:11:05;;;;;;;;;;;;;;;17.04;58.27;102116.25;6294894;22;19906;-81
2022/04/10 18:13:52;;;;;;;;;;;;;;;17.03;58.57;102123.19;6299282;22;19914;-83
2022/04/10 18:28:51;;;;;;;;;;;;;;;16.93;59.49;102123.91;6120220;23;20013;-81
2022/04/10 21:41:19;;;;;;;;;;;;;;;16.48;56.44;102085.09;6307063;22;19911;-84
